sensor_id;sensor_type;location;lat;lon;timestamp;P1;durP1;ratioP1;P2;durP2;ratioP2
27566;SDS011;15006;48.584;9.186;2023-12-20T00:01:57;1.67;;;1.58;;
27566;SDS011;15006;48.584;9.186;2023-12-20T00:04:24;1.58;;;1.48;;
27566;SDS011;15006;48.584;9.186;2023-12-20T00:06:49;1.85;;;1.75;;
27566;SDS011;15006;48.584;9.186;2023-12-20T00:09:16;1.90;;;1.80;;
27566;SDS011;15006;48.584;9.186;2023-12-20T00:11:42;1.23;;;1.23;;
27566;SDS011;15006;48.584;9.186;2023-12-20T00:14:08;1.45;;;1.40;;
27566;SDS011;15006;48.584;9.186;2023-12-20T00:16:34;1.30;;;1.20;;
27566;SDS011;15006;48.584;9.186;2023-12-20T00:19:00;1.60;;;1.50;;
27566;SDS011;15006;48.584;9.186;2023-12-20T00:21:26;1.48;;;1.38;;
27566;SDS011;15006;48.584;9.186;2023-12-20T00:23:52;1.30;;;1.20;;
27566;SDS011;15006;48.584;9.186;2023-12-20T00:26:18;1.25;;;1.25;;
27566;SDS011;15006;48.584;9.186;2023-12-20T00:28:44;2.42;;;1.25;;
27566;SDS011;15006;48.584;9.186;2023-12-20T00:31:10;1.20;;;1.10;;
27566;SDS011;15006;48.584;9.186;2023-12-20T00:33:36;1.10;;;1.10;;
27566;SDS011;15006;48.584;9.186;2023-12-20T00:36:02;0.80;;;0.80;;
27566;SDS011;15006;48.584;9.186;2023-12-20T00:38:30;1.10;;;1.10;;
27566;SDS011;15006;48.584;9.186;2023-12-20T00:40:56;1.05;;;1.05;;
27566;SDS011;15006;48.584;9.186;2023-12-20T00:43:22;1.40;;;1.30;;
27566;SDS011;15006;48.584;9.186;2023-12-20T00:45:48;1.23;;;1.13;;
27566;SDS011;15006;48.584;9.186;2023-12-20T00:48:15;1.30;;;0.90;;
27566;SDS011;15006;48.584;9.186;2023-12-20T00:50:41;1.20;;;1.10;;
27566;SDS011;15006;48.584;9.186;2023-12-20T00:53:07;1.23;;;1.13;;
27566;SDS011;15006;48.584;9.186;2023-12-20T00:55:33;1.40;;;1.30;;
27566;SDS011;15006;48.584;9.186;2023-12-20T00:57:59;1.10;;;1.10;;
27566;SDS011;15006;48.584;9.186;2023-12-20T01:00:25;1.02;;;1.02;;
27566;SDS011;15006;48.584;9.186;2023-12-20T01:02:52;1.10;;;1.10;;
27566;SDS011;15006;48.584;9.186;2023-12-20T01:05:18;1.30;;;1.30;;
27566;SDS011;15006;48.584;9.186;2023-12-20T01:07:44;1.20;;;1.20;;
27566;SDS011;15006;48.584;9.186;2023-12-20T01:10:11;1.55;;;1.45;;
27566;SDS011;15006;48.584;9.186;2023-12-20T01:12:37;2.28;;;1.40;;
27566;SDS011;15006;48.584;9.186;2023-12-20T01:15:03;1.00;;;1.00;;
27566;SDS011;15006;48.584;9.186;2023-12-20T01:17:29;1.25;;;1.20;;
27566;SDS011;15006;48.584;9.186;2023-12-20T01:19:55;1.20;;;1.10;;
27566;SDS011;15006;48.584;9.186;2023-12-20T01:22:21;2.70;;;1.35;;
27566;SDS011;15006;48.584;9.186;2023-12-20T01:24:47;0.80;;;0.80;;
27566;SDS011;15006;48.584;9.186;2023-12-20T01:27:13;1.10;;;1.10;;
27566;SDS011;15006;48.584;9.186;2023-12-20T01:29:39;1.00;;;1.00;;
27566;SDS011;15006;48.584;9.186;2023-12-20T01:32:06;0.90;;;0.90;;
27566;SDS011;15006;48.584;9.186;2023-12-20T01:34:32;0.80;;;0.80;;
27566;SDS011;15006;48.584;9.186;2023-12-20T01:36:58;2.97;;;1.02;;
27566;SDS011;15006;48.584;9.186;2023-12-20T01:39:26;0.93;;;0.93;;
27566;SDS011;15006;48.584;9.186;2023-12-20T01:41:52;0.90;;;0.73;;
27566;SDS011;15006;48.584;9.186;2023-12-20T01:44:18;2.30;;;1.10;;
27566;SDS011;15006;48.584;9.186;2023-12-20T01:46:44;1.20;;;1.08;;
27566;SDS011;15006;48.584;9.186;2023-12-20T01:49:11;1.95;;;0.80;;
27566;SDS011;15006;48.584;9.186;2023-12-20T01:51:37;1.25;;;0.93;;
27566;SDS011;15006;48.584;9.186;2023-12-20T01:54:03;0.75;;;0.60;;
27566;SDS011;15006;48.584;9.186;2023-12-20T01:56:30;1.02;;;0.90;;
27566;SDS011;15006;48.584;9.186;2023-12-20T01:58:57;1.17;;;0.70;;
27566;SDS011;15006;48.584;9.186;2023-12-20T02:01:24;0.70;;;0.70;;
27566;SDS011;15006;48.584;9.186;2023-12-20T02:03:50;0.75;;;0.75;;
27566;SDS011;15006;48.584;9.186;2023-12-20T02:06:18;1.17;;;0.93;;
27566;SDS011;15006;48.584;9.186;2023-12-20T02:08:46;0.80;;;0.80;;
27566;SDS011;15006;48.584;9.186;2023-12-20T02:11:12;0.60;;;0.60;;
27566;SDS011;15006;48.584;9.186;2023-12-20T02:13:38;0.65;;;0.65;;
27566;SDS011;15006;48.584;9.186;2023-12-20T02:16:04;1.05;;;0.95;;
27566;SDS011;15006;48.584;9.186;2023-12-20T02:18:33;2.25;;;0.90;;
27566;SDS011;15006;48.584;9.186;2023-12-20T02:20:59;3.00;;;0.90;;
27566;SDS011;15006;48.584;9.186;2023-12-20T02:23:25;0.80;;;0.80;;
27566;SDS011;15006;48.584;9.186;2023-12-20T02:25:51;1.00;;;1.00;;
27566;SDS011;15006;48.584;9.186;2023-12-20T02:28:17;0.90;;;0.90;;
27566;SDS011;15006;48.584;9.186;2023-12-20T02:30:44;1.00;;;1.00;;
27566;SDS011;15006;48.584;9.186;2023-12-20T02:33:10;1.17;;;1.10;;
27566;SDS011;15006;48.584;9.186;2023-12-20T02:35:37;0.93;;;0.93;;
27566;SDS011;15006;48.584;9.186;2023-12-20T02:38:03;1.10;;;1.05;;
27566;SDS011;15006;48.584;9.186;2023-12-20T02:40:29;1.40;;;1.15;;
27566;SDS011;15006;48.584;9.186;2023-12-20T02:42:55;1.10;;;1.10;;
27566;SDS011;15006;48.584;9.186;2023-12-20T02:45:21;1.05;;;1.05;;
27566;SDS011;15006;48.584;9.186;2023-12-20T02:47:47;1.45;;;1.20;;
27566;SDS011;15006;48.584;9.186;2023-12-20T02:50:13;1.10;;;1.10;;
27566;SDS011;15006;48.584;9.186;2023-12-20T02:52:39;1.30;;;1.30;;
27566;SDS011;15006;48.584;9.186;2023-12-20T02:55:05;1.38;;;1.27;;
27566;SDS011;15006;48.584;9.186;2023-12-20T02:57:31;1.30;;;1.20;;
27566;SDS011;15006;48.584;9.186;2023-12-20T02:59:58;1.13;;;1.13;;
27566;SDS011;15006;48.584;9.186;2023-12-20T03:02:24;1.30;;;1.30;;
27566;SDS011;15006;48.584;9.186;2023-12-20T03:04:51;1.77;;;1.02;;
27566;SDS011;15006;48.584;9.186;2023-12-20T03:07:17;1.13;;;1.00;;
27566;SDS011;15006;48.584;9.186;2023-12-20T03:09:43;1.00;;;1.00;;
27566;SDS011;15006;48.584;9.186;2023-12-20T03:12:09;2.05;;;1.20;;
27566;SDS011;15006;48.584;9.186;2023-12-20T03:14:35;1.10;;;1.10;;
27566;SDS011;15006;48.584;9.186;2023-12-20T03:17:01;1.27;;;1.20;;
27566;SDS011;15006;48.584;9.186;2023-12-20T03:19:27;0.95;;;0.95;;
27566;SDS011;15006;48.584;9.186;2023-12-20T03:21:54;1.25;;;1.13;;
27566;SDS011;15006;48.584;9.186;2023-12-20T03:24:20;1.10;;;1.00;;
27566;SDS011;15006;48.584;9.186;2023-12-20T03:26:46;0.82;;;0.82;;
27566;SDS011;15006;48.584;9.186;2023-12-20T03:29:12;1.42;;;0.93;;
27566;SDS011;15006;48.584;9.186;2023-12-20T03:31:38;0.82;;;0.82;;
27566;SDS011;15006;48.584;9.186;2023-12-20T03:34:04;0.90;;;0.90;;
27566;SDS011;15006;48.584;9.186;2023-12-20T03:36:30;0.88;;;0.88;;
27566;SDS011;15006;48.584;9.186;2023-12-20T03:38:57;1.15;;;0.80;;
27566;SDS011;15006;48.584;9.186;2023-12-20T03:41:23;1.05;;;1.05;;
27566;SDS011;15006;48.584;9.186;2023-12-20T03:43:49;0.60;;;0.60;;
27566;SDS011;15006;48.584;9.186;2023-12-20T03:46:15;1.33;;;0.70;;
27566;SDS011;15006;48.584;9.186;2023-12-20T03:48:42;1.38;;;0.60;;
27566;SDS011;15006;48.584;9.186;2023-12-20T03:51:08;0.80;;;0.80;;
27566;SDS011;15006;48.584;9.186;2023-12-20T03:53:34;0.60;;;0.60;;
27566;SDS011;15006;48.584;9.186;2023-12-20T03:55:59;0.80;;;0.80;;
27566;SDS011;15006;48.584;9.186;2023-12-20T03:58:26;0.60;;;0.60;;
27566;SDS011;15006;48.584;9.186;2023-12-20T04:00:52;0.65;;;0.50;;
27566;SDS011;15006;48.584;9.186;2023-12-20T04:03:18;0.60;;;0.60;;
27566;SDS011;15006;48.584;9.186;2023-12-20T04:05:44;0.60;;;0.60;;
27566;SDS011;15006;48.584;9.186;2023-12-20T04:08:10;1.98;;;0.50;;
27566;SDS011;15006;48.584;9.186;2023-12-20T04:10:36;0.40;;;0.40;;
27566;SDS011;15006;48.584;9.186;2023-12-20T04:13:03;0.40;;;0.40;;
27566;SDS011;15006;48.584;9.186;2023-12-20T04:15:29;0.30;;;0.30;;
27566;SDS011;15006;48.584;9.186;2023-12-20T04:17:55;0.40;;;0.40;;
27566;SDS011;15006;48.584;9.186;2023-12-20T04:20:21;0.38;;;0.38;;
27566;SDS011;15006;48.584;9.186;2023-12-20T04:22:48;0.55;;;0.40;;
27566;SDS011;15006;48.584;9.186;2023-12-20T04:25:14;0.38;;;0.38;;
27566;SDS011;15006;48.584;9.186;2023-12-20T04:27:40;0.30;;;0.30;;
27566;SDS011;15006;48.584;9.186;2023-12-20T04:30:06;0.30;;;0.30;;
27566;SDS011;15006;48.584;9.186;2023-12-20T04:32:33;1.40;;;0.30;;
27566;SDS011;15006;48.584;9.186;2023-12-20T04:34:59;0.40;;;0.40;;
27566;SDS011;15006;48.584;9.186;2023-12-20T04:37:25;0.30;;;0.30;;
27566;SDS011;15006;48.584;9.186;2023-12-20T04:39:51;0.30;;;0.30;;
27566;SDS011;15006;48.584;9.186;2023-12-20T04:42:17;0.30;;;0.30;;
27566;SDS011;15006;48.584;9.186;2023-12-20T04:44:44;0.30;;;0.20;;
27566;SDS011;15006;48.584;9.186;2023-12-20T04:47:10;0.30;;;0.30;;
27566;SDS011;15006;48.584;9.186;2023-12-20T04:49:36;0.57;;;0.20;;
27566;SDS011;15006;48.584;9.186;2023-12-20T04:52:02;0.30;;;0.30;;
27566;SDS011;15006;48.584;9.186;2023-12-20T04:54:29;0.30;;;0.30;;
27566;SDS011;15006;48.584;9.186;2023-12-20T04:56:55;0.28;;;0.28;;
27566;SDS011;15006;48.584;9.186;2023-12-20T04:59:21;0.30;;;0.30;;
27566;SDS011;15006;48.584;9.186;2023-12-20T05:01:47;0.30;;;0.30;;
27566;SDS011;15006;48.584;9.186;2023-12-20T05:04:13;0.30;;;0.30;;
27566;SDS011;15006;48.584;9.186;2023-12-20T05:06:39;0.30;;;0.30;;
27566;SDS011;15006;48.584;9.186;2023-12-20T05:09:06;0.28;;;0.28;;
27566;SDS011;15006;48.584;9.186;2023-12-20T05:11:33;0.30;;;0.30;;
27566;SDS011;15006;48.584;9.186;2023-12-20T05:13:59;0.30;;;0.30;;
27566;SDS011;15006;48.584;9.186;2023-12-20T05:16:24;0.30;;;0.30;;
27566;SDS011;15006;48.584;9.186;2023-12-20T05:18:51;0.63;;;0.30;;
27566;SDS011;15006;48.584;9.186;2023-12-20T05:21:17;0.30;;;0.30;;
27566;SDS011;15006;48.584;9.186;2023-12-20T05:23:43;0.77;;;0.40;;
27566;SDS011;15006;48.584;9.186;2023-12-20T05:26:10;0.45;;;0.45;;
27566;SDS011;15006;48.584;9.186;2023-12-20T05:28:36;0.55;;;0.40;;
27566;SDS011;15006;48.584;9.186;2023-12-20T05:31:02;0.90;;;0.60;;
27566;SDS011;15006;48.584;9.186;2023-12-20T05:33:28;0.32;;;0.32;;
27566;SDS011;15006;48.584;9.186;2023-12-20T05:35:54;0.82;;;0.40;;
27566;SDS011;15006;48.584;9.186;2023-12-20T05:38:20;0.35;;;0.35;;
27566;SDS011;15006;48.584;9.186;2023-12-20T05:40:46;1.00;;;0.40;;
27566;SDS011;15006;48.584;9.186;2023-12-20T05:43:12;0.32;;;0.32;;
27566;SDS011;15006;48.584;9.186;2023-12-20T05:45:39;0.30;;;0.30;;
27566;SDS011;15006;48.584;9.186;2023-12-20T05:48:06;0.63;;;0.40;;
27566;SDS011;15006;48.584;9.186;2023-12-20T05:50:32;1.10;;;0.40;;
27566;SDS011;15006;48.584;9.186;2023-12-20T05:53:00;0.38;;;0.38;;
27566;SDS011;15006;48.584;9.186;2023-12-20T05:55:26;1.20;;;0.45;;
27566;SDS011;15006;48.584;9.186;2023-12-20T05:57:53;0.65;;;0.50;;
27566;SDS011;15006;48.584;9.186;2023-12-20T06:00:19;0.32;;;0.32;;
27566;SDS011;15006;48.584;9.186;2023-12-20T06:02:45;0.50;;;0.40;;
27566;SDS011;15006;48.584;9.186;2023-12-20T06:05:11;0.40;;;0.40;;
27566;SDS011;15006;48.584;9.186;2023-12-20T06:07:37;0.40;;;0.40;;
27566;SDS011;15006;48.584;9.186;2023-12-20T06:10:03;0.40;;;0.40;;
27566;SDS011;15006;48.584;9.186;2023-12-20T06:12:31;4.85;;;0.40;;
27566;SDS011;15006;48.584;9.186;2023-12-20T06:15:43;0.75;;;0.40;;
27566;SDS011;15006;48.584;9.186;2023-12-20T06:18:09;0.50;;;0.50;;
27566;SDS011;15006;48.584;9.186;2023-12-20T06:20:35;1.10;;;0.40;;
27566;SDS011;15006;48.584;9.186;2023-12-20T06:23:01;0.40;;;0.40;;
27566;SDS011;15006;48.584;9.186;2023-12-20T06:25:27;0.30;;;0.30;;
27566;SDS011;15006;48.584;9.186;2023-12-20T06:27:53;0.38;;;0.38;;
27566;SDS011;15006;48.584;9.186;2023-12-20T06:30:19;1.75;;;0.40;;
27566;SDS011;15006;48.584;9.186;2023-12-20T06:32:45;0.60;;;0.60;;
27566;SDS011;15006;48.584;9.186;2023-12-20T06:35:12;0.30;;;0.30;;
27566;SDS011;15006;48.584;9.186;2023-12-20T06:37:38;0.45;;;0.45;;
27566;SDS011;15006;48.584;9.186;2023-12-20T06:40:09;1.95;;;0.60;;
27566;SDS011;15006;48.584;9.186;2023-12-20T06:42:35;0.75;;;0.60;;
27566;SDS011;15006;48.584;9.186;2023-12-20T06:45:02;0.70;;;0.70;;
27566;SDS011;15006;48.584;9.186;2023-12-20T06:47:29;0.70;;;0.70;;
27566;SDS011;15006;48.584;9.186;2023-12-20T06:49:55;0.82;;;0.82;;
27566;SDS011;15006;48.584;9.186;2023-12-20T06:52:21;1.50;;;1.40;;
27566;SDS011;15006;48.584;9.186;2023-12-20T06:54:47;2.83;;;1.50;;
27566;SDS011;15006;48.584;9.186;2023-12-20T06:57:13;2.85;;;1.60;;
27566;SDS011;15006;48.584;9.186;2023-12-20T06:59:40;2.80;;;1.70;;
27566;SDS011;15006;48.584;9.186;2023-12-20T07:02:06;2.00;;;1.90;;
27566;SDS011;15006;48.584;9.186;2023-12-20T07:04:33;1.75;;;1.65;;
27566;SDS011;15006;48.584;9.186;2023-12-20T07:07:04;1.98;;;1.88;;
27566;SDS011;15006;48.584;9.186;2023-12-20T07:09:31;2.58;;;2.47;;
27566;SDS011;15006;48.584;9.186;2023-12-20T07:11:57;2.20;;;2.10;;
27566;SDS011;15006;48.584;9.186;2023-12-20T07:14:23;2.33;;;2.13;;
27566;SDS011;15006;48.584;9.186;2023-12-20T07:16:50;1.90;;;1.70;;
27566;SDS011;15006;48.584;9.186;2023-12-20T07:19:15;7.38;;;1.92;;
27566;SDS011;15006;48.584;9.186;2023-12-20T07:21:41;3.03;;;2.40;;
27566;SDS011;15006;48.584;9.186;2023-12-20T07:24:08;2.67;;;2.40;;
27566;SDS011;15006;48.584;9.186;2023-12-20T07:26:34;2.53;;;2.38;;
27566;SDS011;15006;48.584;9.186;2023-12-20T07:29:01;3.10;;;2.90;;
27566;SDS011;15006;48.584;9.186;2023-12-20T07:31:27;2.45;;;2.22;;
27566;SDS011;15006;48.584;9.186;2023-12-20T07:33:53;2.70;;;2.50;;
27566;SDS011;15006;48.584;9.186;2023-12-20T07:36:19;1.98;;;1.88;;
27566;SDS011;15006;48.584;9.186;2023-12-20T07:38:46;3.08;;;2.80;;
27566;SDS011;15006;48.584;9.186;2023-12-20T07:41:12;1.92;;;1.83;;
27566;SDS011;15006;48.584;9.186;2023-12-20T07:43:38;3.40;;;2.75;;
27566;SDS011;15006;48.584;9.186;2023-12-20T07:46:07;4.90;;;4.57;;
27566;SDS011;15006;48.584;9.186;2023-12-20T07:48:34;1.40;;;1.30;;
27566;SDS011;15006;48.584;9.186;2023-12-20T07:51:01;1.65;;;1.55;;
27566;SDS011;15006;48.584;9.186;2023-12-20T07:53:27;1.92;;;1.40;;
27566;SDS011;15006;48.584;9.186;2023-12-20T07:55:53;1.60;;;1.50;;
27566;SDS011;15006;48.584;9.186;2023-12-20T07:58:20;3.55;;;3.25;;
27566;SDS011;15006;48.584;9.186;2023-12-20T08:00:47;3.13;;;2.53;;
27566;SDS011;15006;48.584;9.186;2023-12-20T08:03:13;1.40;;;1.30;;
27566;SDS011;15006;48.584;9.186;2023-12-20T08:05:39;0.82;;;0.82;;
27566;SDS011;15006;48.584;9.186;2023-12-20T08:08:06;0.93;;;0.93;;
27566;SDS011;15006;48.584;9.186;2023-12-20T08:10:32;1.00;;;1.00;;
27566;SDS011;15006;48.584;9.186;2023-12-20T08:12:58;1.20;;;1.10;;
27566;SDS011;15006;48.584;9.186;2023-12-20T08:15:24;0.98;;;0.70;;
27566;SDS011;15006;48.584;9.186;2023-12-20T08:17:50;1.08;;;1.00;;
27566;SDS011;15006;48.584;9.186;2023-12-20T08:20:16;1.50;;;1.40;;
27566;SDS011;15006;48.584;9.186;2023-12-20T08:22:42;0.98;;;0.90;;
27566;SDS011;15006;48.584;9.186;2023-12-20T08:25:09;0.60;;;0.60;;
27566;SDS011;15006;48.584;9.186;2023-12-20T08:27:39;1.55;;;1.45;;
27566;SDS011;15006;48.584;9.186;2023-12-20T08:30:07;1.80;;;1.70;;
27566;SDS011;15006;48.584;9.186;2023-12-20T08:32:35;1.10;;;1.10;;
27566;SDS011;15006;48.584;9.186;2023-12-20T08:35:01;1.27;;;1.27;;
27566;SDS011;15006;48.584;9.186;2023-12-20T08:37:28;5.28;;;1.58;;
27566;SDS011;15006;48.584;9.186;2023-12-20T08:39:55;1.70;;;1.60;;
27566;SDS011;15006;48.584;9.186;2023-12-20T08:42:21;1.02;;;0.93;;
27566;SDS011;15006;48.584;9.186;2023-12-20T08:44:49;1.10;;;1.10;;
27566;SDS011;15006;48.584;9.186;2023-12-20T08:47:15;3.45;;;3.13;;
27566;SDS011;15006;48.584;9.186;2023-12-20T08:49:42;5.93;;;5.53;;
27566;SDS011;15006;48.584;9.186;2023-12-20T08:52:09;4.95;;;4.60;;
27566;SDS011;15006;48.584;9.186;2023-12-20T08:54:35;3.10;;;2.90;;
27566;SDS011;15006;48.584;9.186;2023-12-20T08:57:01;2.88;;;2.67;;
27566;SDS011;15006;48.584;9.186;2023-12-20T08:59:27;3.65;;;3.45;;
27566;SDS011;15006;48.584;9.186;2023-12-20T09:01:54;2.67;;;2.40;;
27566;SDS011;15006;48.584;9.186;2023-12-20T09:04:21;2.10;;;2.00;;
27566;SDS011;15006;48.584;9.186;2023-12-20T09:06:47;1.77;;;1.23;;
27566;SDS011;15006;48.584;9.186;2023-12-20T09:09:13;2.08;;;1.20;;
27566;SDS011;15006;48.584;9.186;2023-12-20T09:11:40;5.18;;;3.15;;
27566;SDS011;15006;48.584;9.186;2023-12-20T09:14:07;2.70;;;2.58;;
27566;SDS011;15006;48.584;9.186;2023-12-20T09:16:34;6.25;;;5.75;;
27566;SDS011;15006;48.584;9.186;2023-12-20T09:19:00;4.85;;;2.85;;
27566;SDS011;15006;48.584;9.186;2023-12-20T09:21:26;2.65;;;2.45;;
27566;SDS011;15006;48.584;9.186;2023-12-20T09:23:52;4.38;;;2.40;;
27566;SDS011;15006;48.584;9.186;2023-12-20T09:26:18;2.10;;;2.00;;
27566;SDS011;15006;48.584;9.186;2023-12-20T09:28:44;3.20;;;2.90;;
27566;SDS011;15006;48.584;9.186;2023-12-20T09:31:10;2.40;;;2.17;;
27566;SDS011;15006;48.584;9.186;2023-12-20T09:33:36;5.65;;;2.80;;
27566;SDS011;15006;48.584;9.186;2023-12-20T09:36:02;3.97;;;3.55;;
27566;SDS011;15006;48.584;9.186;2023-12-20T09:38:29;2.85;;;2.05;;
27566;SDS011;15006;48.584;9.186;2023-12-20T09:40:55;3.13;;;2.72;;
27566;SDS011;15006;48.584;9.186;2023-12-20T09:43:22;2.75;;;2.65;;
27566;SDS011;15006;48.584;9.186;2023-12-20T09:45:52;2.72;;;2.47;;
27566;SDS011;15006;48.584;9.186;2023-12-20T09:48:19;4.32;;;2.10;;
27566;SDS011;15006;48.584;9.186;2023-12-20T09:50:45;3.45;;;1.88;;
27566;SDS011;15006;48.584;9.186;2023-12-20T09:53:14;1.67;;;1.58;;
27566;SDS011;15006;48.584;9.186;2023-12-20T09:55:42;3.70;;;2.33;;
27566;SDS011;15006;48.584;9.186;2023-12-20T09:58:08;6.80;;;1.90;;
27566;SDS011;15006;48.584;9.186;2023-12-20T10:00:34;3.17;;;1.60;;
27566;SDS011;15006;48.584;9.186;2023-12-20T10:03:01;6.05;;;2.30;;
27566;SDS011;15006;48.584;9.186;2023-12-20T10:05:28;4.50;;;1.70;;
27566;SDS011;15006;48.584;9.186;2023-12-20T10:07:56;2.30;;;1.70;;
27566;SDS011;15006;48.584;9.186;2023-12-20T10:10:23;1.40;;;1.30;;
27566;SDS011;15006;48.584;9.186;2023-12-20T10:15:29;3.15;;;1.90;;
27566;SDS011;15006;48.584;9.186;2023-12-20T10:17:56;5.78;;;1.73;;
27566;SDS011;15006;48.584;9.186;2023-12-20T10:20:23;5.13;;;1.80;;
27566;SDS011;15006;48.584;9.186;2023-12-20T10:22:49;4.53;;;2.00;;
27566;SDS011;15006;48.584;9.186;2023-12-20T10:25:16;7.38;;;1.52;;
27566;SDS011;15006;48.584;9.186;2023-12-20T10:27:42;3.17;;;1.65;;
27566;SDS011;15006;48.584;9.186;2023-12-20T10:30:09;5.32;;;2.15;;
27566;SDS011;15006;48.584;9.186;2023-12-20T10:32:35;3.03;;;1.58;;
27566;SDS011;15006;48.584;9.186;2023-12-20T10:35:02;2.47;;;1.27;;
27566;SDS011;15006;48.584;9.186;2023-12-20T10:37:28;1.80;;;1.50;;
27566;SDS011;15006;48.584;9.186;2023-12-20T10:39:54;5.38;;;1.60;;
27566;SDS011;15006;48.584;9.186;2023-12-20T10:42:24;1.95;;;1.10;;
27566;SDS011;15006;48.584;9.186;2023-12-20T10:44:52;4.18;;;1.60;;
27566;SDS011;15006;48.584;9.186;2023-12-20T10:47:19;2.42;;;1.60;;
27566;SDS011;15006;48.584;9.186;2023-12-20T10:49:46;2.88;;;1.70;;
27566;SDS011;15006;48.584;9.186;2023-12-20T10:52:12;5.35;;;1.25;;
27566;SDS011;15006;48.584;9.186;2023-12-20T10:54:39;4.95;;;1.33;;
27566;SDS011;15006;48.584;9.186;2023-12-20T10:57:06;2.75;;;1.70;;
27566;SDS011;15006;48.584;9.186;2023-12-20T10:59:33;4.15;;;3.83;;
27566;SDS011;15006;48.584;9.186;2023-12-20T11:02:03;11.00;;;7.25;;
27566;SDS011;15006;48.584;9.186;2023-12-20T11:04:44;5.05;;;3.58;;
27566;SDS011;15006;48.584;9.186;2023-12-20T11:07:34;4.32;;;3.15;;
27566;SDS011;15006;48.584;9.186;2023-12-20T11:12:59;3.13;;;2.30;;
27566;SDS011;15006;48.584;9.186;2023-12-20T11:15:43;4.32;;;1.90;;
27566;SDS011;15006;48.584;9.186;2023-12-20T11:18:09;2.65;;;1.67;;
27566;SDS011;15006;48.584;9.186;2023-12-20T11:20:39;2.75;;;2.50;;
27566;SDS011;15006;48.584;9.186;2023-12-20T11:23:06;4.00;;;2.80;;
27566;SDS011;15006;48.584;9.186;2023-12-20T11:25:53;1.63;;;1.17;;
27566;SDS011;15006;48.584;9.186;2023-12-20T11:28:24;1.45;;;1.35;;
27566;SDS011;15006;48.584;9.186;2023-12-20T11:30:52;2.90;;;2.60;;
27566;SDS011;15006;48.584;9.186;2023-12-20T11:33:21;2.63;;;1.85;;
27566;SDS011;15006;48.584;9.186;2023-12-20T11:36:14;3.55;;;1.42;;
27566;SDS011;15006;48.584;9.186;2023-12-20T11:38:57;3.45;;;1.88;;
27566;SDS011;15006;48.584;9.186;2023-12-20T11:41:23;2.92;;;1.05;;
27566;SDS011;15006;48.584;9.186;2023-12-20T11:43:53;1.60;;;1.40;;
27566;SDS011;15006;48.584;9.186;2023-12-20T11:46:21;3.97;;;1.10;;
27566;SDS011;15006;48.584;9.186;2023-12-20T11:48:48;2.22;;;0.85;;
27566;SDS011;15006;48.584;9.186;2023-12-20T11:51:14;6.20;;;0.90;;
27566;SDS011;15006;48.584;9.186;2023-12-20T11:53:41;3.00;;;0.82;;
27566;SDS011;15006;48.584;9.186;2023-12-20T11:56:10;2.17;;;0.90;;
27566;SDS011;15006;48.584;9.186;2023-12-20T11:58:36;5.05;;;1.02;;
27566;SDS011;15006;48.584;9.186;2023-12-20T12:01:02;1.15;;;1.00;;
27566;SDS011;15006;48.584;9.186;2023-12-20T12:03:32;2.38;;;1.02;;
27566;SDS011;15006;48.584;9.186;2023-12-20T12:05:58;2.45;;;1.10;;
27566;SDS011;15006;48.584;9.186;2023-12-20T12:08:26;5.35;;;1.10;;
27566;SDS011;15006;48.584;9.186;2023-12-20T12:10:52;2.50;;;1.23;;
27566;SDS011;15006;48.584;9.186;2023-12-20T12:13:19;3.38;;;2.40;;
27566;SDS011;15006;48.584;9.186;2023-12-20T12:15:45;4.03;;;1.23;;
27566;SDS011;15006;48.584;9.186;2023-12-20T12:18:15;2.15;;;1.20;;
27566;SDS011;15006;48.584;9.186;2023-12-20T12:20:42;3.43;;;1.40;;
27566;SDS011;15006;48.584;9.186;2023-12-20T12:23:08;5.95;;;1.52;;
27566;SDS011;15006;48.584;9.186;2023-12-20T12:25:35;5.43;;;1.52;;
27566;SDS011;15006;48.584;9.186;2023-12-20T12:28:02;4.35;;;1.58;;
27566;SDS011;15006;48.584;9.186;2023-12-20T12:30:29;4.22;;;1.50;;
27566;SDS011;15006;48.584;9.186;2023-12-20T12:32:56;5.47;;;1.50;;
27566;SDS011;15006;48.584;9.186;2023-12-20T12:35:23;3.22;;;1.30;;
27566;SDS011;15006;48.584;9.186;2023-12-20T12:37:49;5.70;;;1.60;;
27566;SDS011;15006;48.584;9.186;2023-12-20T12:40:16;2.40;;;1.23;;
27566;SDS011;15006;48.584;9.186;2023-12-20T12:42:43;4.90;;;1.83;;
27566;SDS011;15006;48.584;9.186;2023-12-20T12:45:10;3.38;;;1.60;;
27566;SDS011;15006;48.584;9.186;2023-12-20T12:47:37;4.68;;;1.42;;
27566;SDS011;15006;48.584;9.186;2023-12-20T12:50:04;6.68;;;1.55;;
27566;SDS011;15006;48.584;9.186;2023-12-20T12:52:31;7.25;;;1.55;;
27566;SDS011;15006;48.584;9.186;2023-12-20T12:54:58;4.28;;;1.67;;
27566;SDS011;15006;48.584;9.186;2023-12-20T12:57:24;6.90;;;2.03;;
27566;SDS011;15006;48.584;9.186;2023-12-20T12:59:51;8.60;;;1.55;;
27566;SDS011;15006;48.584;9.186;2023-12-20T13:02:17;4.50;;;1.50;;
27566;SDS011;15006;48.584;9.186;2023-12-20T13:04:44;3.05;;;1.20;;
27566;SDS011;15006;48.584;9.186;2023-12-20T13:07:10;7.72;;;1.52;;
27566;SDS011;15006;48.584;9.186;2023-12-20T13:09:36;3.05;;;1.30;;
27566;SDS011;15006;48.584;9.186;2023-12-20T13:12:03;2.45;;;1.60;;
27566;SDS011;15006;48.584;9.186;2023-12-20T13:14:31;5.18;;;1.50;;
27566;SDS011;15006;48.584;9.186;2023-12-20T13:16:59;2.65;;;1.92;;
27566;SDS011;15006;48.584;9.186;2023-12-20T13:19:29;4.05;;;1.48;;
27566;SDS011;15006;48.584;9.186;2023-12-20T13:21:55;5.20;;;1.90;;
27566;SDS011;15006;48.584;9.186;2023-12-20T13:24:23;5.55;;;1.50;;
27566;SDS011;15006;48.584;9.186;2023-12-20T13:26:49;3.22;;;1.52;;
27566;SDS011;15006;48.584;9.186;2023-12-20T13:29:15;7.45;;;1.85;;
27566;SDS011;15006;48.584;9.186;2023-12-20T13:31:42;5.68;;;1.38;;
27566;SDS011;15006;48.584;9.186;2023-12-20T13:34:08;3.30;;;1.50;;
27566;SDS011;15006;48.584;9.186;2023-12-20T13:36:34;3.47;;;1.83;;
27566;SDS011;15006;48.584;9.186;2023-12-20T13:39:02;8.35;;;1.90;;
27566;SDS011;15006;48.584;9.186;2023-12-20T13:41:30;5.63;;;1.58;;
27566;SDS011;15006;48.584;9.186;2023-12-20T13:43:57;4.25;;;1.23;;
27566;SDS011;15006;48.584;9.186;2023-12-20T13:46:23;3.75;;;1.67;;
27566;SDS011;15006;48.584;9.186;2023-12-20T13:48:49;7.25;;;1.90;;
27566;SDS011;15006;48.584;9.186;2023-12-20T13:51:15;5.80;;;2.40;;
27566;SDS011;15006;48.584;9.186;2023-12-20T13:53:42;2.53;;;1.60;;
27566;SDS011;15006;48.584;9.186;2023-12-20T13:56:08;4.65;;;1.73;;
27566;SDS011;15006;48.584;9.186;2023-12-20T13:58:34;6.05;;;1.90;;
27566;SDS011;15006;48.584;9.186;2023-12-20T14:01:00;5.45;;;1.95;;
27566;SDS011;15006;48.584;9.186;2023-12-20T14:03:26;4.68;;;1.88;;
27566;SDS011;15006;48.584;9.186;2023-12-20T14:05:52;7.72;;;2.10;;
27566;SDS011;15006;48.584;9.186;2023-12-20T14:08:18;5.38;;;1.58;;
27566;SDS011;15006;48.584;9.186;2023-12-20T14:10:44;9.40;;;1.92;;
27566;SDS011;15006;48.584;9.186;2023-12-20T14:13:10;2.95;;;1.30;;
27566;SDS011;15006;48.584;9.186;2023-12-20T14:15:36;3.45;;;1.90;;
27566;SDS011;15006;48.584;9.186;2023-12-20T14:18:05;7.22;;;1.50;;
27566;SDS011;15006;48.584;9.186;2023-12-20T14:20:33;7.60;;;1.70;;
27566;SDS011;15006;48.584;9.186;2023-12-20T14:23:03;5.10;;;2.38;;
27566;SDS011;15006;48.584;9.186;2023-12-20T14:25:29;2.38;;;1.40;;
27566;SDS011;15006;48.584;9.186;2023-12-20T14:27:56;3.50;;;1.50;;
27566;SDS011;15006;48.584;9.186;2023-12-20T14:30:23;4.13;;;1.42;;
27566;SDS011;15006;48.584;9.186;2023-12-20T14:32:49;2.78;;;1.40;;
27566;SDS011;15006;48.584;9.186;2023-12-20T14:35:15;3.22;;;1.88;;
27566;SDS011;15006;48.584;9.186;2023-12-20T14:37:42;5.18;;;1.33;;
27566;SDS011;15006;48.584;9.186;2023-12-20T14:40:08;6.47;;;1.38;;
27566;SDS011;15006;48.584;9.186;2023-12-20T14:42:36;2.55;;;1.40;;
27566;SDS011;15006;48.584;9.186;2023-12-20T14:45:02;5.32;;;1.60;;
27566;SDS011;15006;48.584;9.186;2023-12-20T14:47:29;3.35;;;2.95;;
27566;SDS011;15006;48.584;9.186;2023-12-20T14:49:55;3.33;;;1.67;;
27566;SDS011;15006;48.584;9.186;2023-12-20T14:52:21;5.90;;;1.70;;